createdAt,value
2023-10-20T00:00:42.504Z,100.00
2023-10-20T00:03:10.382Z,100.00
2023-10-20T00:05:37.818Z,100.00
2023-10-20T00:08:05.181Z,100.00
2023-10-20T00:10:36.418Z,100.00
2023-10-20T00:13:04.129Z,100.00
2023-10-20T00:15:30.781Z,100.00
2023-10-20T00:20:41.274Z,100.00
2023-10-20T00:23:07.894Z,100.00
2023-10-20T00:25:34.572Z,100.00
2023-10-20T00:28:01.189Z,100.00
2023-10-20T00:30:27.795Z,100.00
2023-10-20T00:32:54.466Z,100.00
2023-10-20T00:35:21.128Z,100.00
2023-10-20T00:37:47.821Z,100.00
2023-10-20T00:40:14.815Z,100.00
2023-10-20T00:42:41.506Z,100.00
2023-10-20T00:45:09.681Z,100.00
2023-10-20T00:47:39.697Z,100.00
2023-10-20T00:50:10.382Z,100.00
2023-10-20T00:52:37.381Z,100.00
2023-10-20T00:55:04.845Z,100.00
2023-10-20T00:57:32.001Z,100.00
2023-10-20T00:59:58.928Z,100.00
2023-10-20T01:02:25.675Z,100.00
2023-10-20T01:04:52.911Z,100.00
2023-10-20T01:07:19.516Z,100.00
2023-10-20T01:09:46.229Z,100.00
2023-10-20T01:12:12.978Z,100.00
2023-10-20T01:14:39.960Z,100.00
2023-10-20T01:17:06.722Z,100.00
2023-10-20T01:19:34.147Z,100.00
2023-10-20T01:22:01.156Z,100.00
2023-10-20T01:24:28.047Z,100.00
2023-10-20T01:26:54.802Z,100.00
2023-10-20T01:29:21.743Z,100.00
2023-10-20T01:31:48.589Z,100.00
2023-10-20T01:34:15.314Z,100.00
2023-10-20T01:36:42.745Z,100.00
2023-10-20T01:39:09.496Z,100.00
2023-10-20T01:41:36.247Z,100.00
2023-10-20T01:44:03.545Z,100.00
2023-10-20T01:46:30.560Z,100.00
2023-10-20T01:48:57.225Z,100.00
2023-10-20T01:51:23.904Z,100.00
2023-10-20T01:53:50.538Z,100.00
2023-10-20T01:56:17.339Z,100.00
2023-10-20T01:58:43.990Z,100.00
2023-10-20T02:01:10.813Z,100.00
2023-10-20T02:03:38.304Z,100.00
2023-10-20T02:06:06.175Z,100.00
2023-10-20T02:08:33.653Z,100.00
2023-10-20T02:11:01.324Z,100.00
2023-10-20T02:13:28.428Z,100.00
2023-10-20T02:15:55.123Z,100.00
2023-10-20T02:18:21.949Z,100.00
2023-10-20T02:21:05.563Z,100.00
2023-10-20T02:23:33.049Z,100.00
2023-10-20T02:26:01.372Z,100.00
2023-10-20T02:28:28.430Z,100.00
2023-10-20T02:30:58.330Z,100.00
2023-10-20T02:33:25.048Z,100.00
2023-10-20T02:35:53.348Z,100.00
2023-10-20T02:38:23.075Z,100.00
2023-10-20T02:40:51.462Z,100.00
2023-10-20T02:43:18.123Z,100.00
2023-10-20T02:45:49.496Z,100.00
2023-10-20T02:48:16.794Z,100.00
2023-10-20T02:50:43.558Z,100.00
2023-10-20T02:53:10.338Z,100.00
2023-10-20T02:55:38.357Z,100.00
2023-10-20T02:58:05.095Z,100.00
2023-10-20T03:00:31.758Z,100.00
2023-10-20T03:02:59.800Z,100.00
2023-10-20T03:05:31.111Z,100.00
2023-10-20T03:07:59.142Z,100.00
2023-10-20T03:10:27.043Z,100.00
2023-10-20T03:12:53.630Z,100.00
2023-10-20T03:15:21.013Z,100.00
2023-10-20T03:17:47.485Z,100.00
2023-10-20T03:20:18.803Z,100.00
2023-10-20T03:22:47.920Z,100.00
2023-10-20T03:25:16.062Z,100.00
2023-10-20T03:27:42.712Z,100.00
2023-10-20T03:30:09.616Z,100.00
2023-10-20T03:32:36.620Z,100.00
2023-10-20T03:35:03.609Z,100.00
2023-10-20T03:37:30.497Z,100.00
2023-10-20T03:39:57.168Z,100.00
2023-10-20T03:42:23.790Z,100.00
2023-10-20T03:44:50.515Z,100.00
2023-10-20T03:47:18.587Z,100.00
2023-10-20T03:49:45.297Z,100.00
2023-10-20T03:52:14.837Z,100.00
2023-10-20T03:54:41.651Z,100.00
2023-10-20T03:57:08.350Z,100.00
2023-10-20T03:59:35.560Z,100.00
2023-10-20T04:02:03.013Z,100.00
2023-10-20T04:04:29.843Z,100.00
2023-10-20T04:06:56.483Z,100.00
2023-10-20T04:09:24.194Z,100.00
2023-10-20T04:11:51.220Z,100.00
2023-10-20T04:14:17.998Z,100.00
2023-10-20T04:16:45.293Z,100.00
2023-10-20T04:19:14.044Z,100.00
2023-10-20T04:21:42.014Z,100.00
2023-10-20T04:24:09.014Z,100.00
2023-10-20T04:26:36.680Z,100.00
2023-10-20T04:29:15.448Z,100.00
2023-10-20T04:32:00.723Z,100.00
2023-10-20T04:34:46.268Z,100.00
2023-10-20T04:37:31.773Z,100.00
2023-10-20T04:40:18.218Z,100.00
2023-10-20T04:42:53.916Z,100.00
2023-10-20T04:45:23.537Z,100.00
2023-10-20T04:48:08.560Z,100.00
2023-10-20T04:50:54.071Z,100.00
2023-10-20T04:53:38.881Z,100.00
2023-10-20T04:56:18.099Z,100.00
2023-10-20T04:59:06.052Z,100.00
2023-10-20T05:01:46.817Z,100.00
2023-10-20T05:04:25.582Z,100.00
2023-10-20T05:07:09.570Z,100.00
2023-10-20T05:09:45.008Z,100.00
2023-10-20T05:12:11.852Z,100.00
2023-10-20T05:14:38.480Z,100.00
2023-10-20T05:17:07.003Z,100.00
2023-10-20T05:19:37.147Z,100.00
2023-10-20T05:22:03.782Z,100.00
2023-10-20T05:24:30.404Z,100.00
2023-10-20T05:26:56.994Z,100.00
2023-10-20T05:29:23.718Z,100.00
2023-10-20T05:31:50.551Z,100.00
2023-10-20T05:34:17.138Z,100.00
2023-10-20T05:36:43.906Z,100.00
2023-10-20T05:39:10.714Z,100.00
2023-10-20T05:41:37.406Z,100.00
2023-10-20T05:44:06.049Z,100.00
2023-10-20T05:46:33.197Z,100.00
2023-10-20T05:48:59.767Z,100.00
2023-10-20T05:51:26.330Z,100.00
2023-10-20T05:53:54.646Z,100.00
2023-10-20T05:56:21.330Z,100.00
2023-10-20T05:58:48.018Z,100.00
2023-10-20T06:01:14.766Z,100.00
2023-10-20T06:03:41.581Z,100.00
2023-10-20T06:06:08.320Z,100.00
2023-10-20T06:08:35.041Z,100.00
2023-10-20T06:11:05.766Z,99.74
2023-10-20T06:13:35.601Z,98.42
2023-10-20T06:16:21.504Z,97.34
2023-10-20T06:18:48.248Z,96.39
2023-10-20T06:21:16.389Z,94.96
2023-10-20T06:23:43.337Z,93.89
2023-10-20T06:26:10.135Z,92.78
2023-10-20T06:28:36.778Z,92.98
2023-10-20T06:31:23.502Z,92.11
2023-10-20T06:33:56.994Z,89.44
2023-10-20T06:36:27.638Z,88.81
2023-10-20T06:38:54.638Z,89.17
2023-10-20T06:41:21.562Z,88.14
2023-10-20T06:43:49.174Z,88.02
2023-10-20T06:46:15.837Z,87.80
2023-10-20T06:48:42.566Z,87.74
2023-10-20T06:51:09.271Z,85.73
2023-10-20T06:53:36.353Z,87.09
2023-10-20T06:56:15.222Z,86.37
2023-10-20T06:58:43.354Z,85.62
2023-10-20T07:01:09.957Z,84.36
2023-10-20T07:03:36.866Z,82.21
2023-10-20T07:06:08.452Z,80.66
2023-10-20T07:08:35.546Z,78.73
2023-10-20T07:11:03.767Z,78.86
2023-10-20T07:13:33.366Z,78.22
2023-10-20T07:16:00.423Z,75.63
2023-10-20T07:18:27.852Z,72.72
2023-10-20T07:20:58.502Z,73.00
2023-10-20T07:23:25.457Z,74.10
2023-10-20T07:25:52.124Z,73.92
2023-10-20T07:28:18.678Z,74.05
2023-10-20T07:30:45.277Z,74.74
2023-10-20T07:33:12.216Z,75.07
2023-10-20T07:35:39.932Z,73.89
2023-10-20T07:38:06.840Z,74.24
2023-10-20T07:40:36.376Z,72.54
2023-10-20T07:43:07.405Z,73.27
2023-10-20T07:45:44.126Z,74.36
2023-10-20T07:48:12.268Z,71.88
2023-10-20T07:50:39.537Z,71.65
2023-10-20T07:53:06.595Z,70.66
2023-10-20T07:55:33.341Z,68.92
2023-10-20T07:57:59.979Z,68.64
2023-10-20T08:00:26.690Z,68.19
2023-10-20T08:02:55.679Z,66.00
2023-10-20T08:05:26.820Z,65.66
2023-10-20T08:07:54.391Z,62.56
2023-10-20T08:10:22.894Z,62.15
2023-10-20T08:12:50.560Z,58.79
2023-10-20T08:15:17.719Z,57.44
2023-10-20T08:17:46.324Z,58.45
2023-10-20T08:20:13.845Z,58.41
2023-10-20T08:22:40.776Z,58.27
2023-10-20T08:25:08.613Z,57.90
2023-10-20T08:27:35.395Z,57.83
2023-10-20T08:30:02.345Z,57.38
2023-10-20T08:32:30.379Z,58.45
2023-10-20T08:34:57.058Z,58.47
2023-10-20T08:37:23.889Z,57.42
2023-10-20T08:39:50.559Z,58.92
2023-10-20T08:42:21.186Z,61.92
2023-10-20T08:44:48.075Z,62.42
2023-10-20T08:47:16.418Z,63.71
2023-10-20T08:49:47.353Z,61.27
2023-10-20T08:52:15.116Z,58.37
2023-10-20T08:54:42.379Z,56.14
2023-10-20T08:57:09.598Z,54.85
2023-10-20T08:59:37.549Z,53.39
2023-10-20T09:02:05.266Z,53.67
2023-10-20T09:04:32.521Z,53.57
2023-10-20T09:07:13.225Z,52.84
2023-10-20T09:12:09.937Z,56.42
2023-10-20T09:14:40.958Z,59.38
2023-10-20T09:17:10.040Z,61.82
2023-10-20T09:19:37.308Z,61.52
2023-10-20T09:22:03.859Z,61.18
2023-10-20T09:24:33.418Z,62.07
2023-10-20T09:27:01.157Z,62.64
2023-10-20T09:29:28.915Z,63.90
2023-10-20T09:31:56.240Z,63.25
2023-10-20T09:34:22.868Z,60.69
2023-10-20T09:36:50.604Z,60.11
2023-10-20T09:39:26.186Z,60.86
2023-10-20T09:41:55.013Z,61.72
2023-10-20T09:44:26.468Z,61.03
2023-10-20T09:46:56.785Z,60.71
2023-10-20T09:49:27.327Z,59.06
2023-10-20T09:51:55.694Z,58.42
2023-10-20T09:54:29.648Z,58.33
2023-10-20T09:57:00.555Z,58.54
2023-10-20T09:59:29.001Z,58.17
2023-10-20T10:01:57.646Z,58.59
2023-10-20T10:04:38.910Z,58.71
2023-10-20T10:07:10.497Z,56.92
2023-10-20T10:09:53.566Z,56.91
2023-10-20T10:12:21.662Z,55.91
2023-10-20T10:14:58.922Z,55.63
2023-10-20T10:17:28.916Z,56.09
2023-10-20T10:19:57.160Z,56.01
2023-10-20T10:22:28.761Z,54.74
2023-10-20T10:24:57.785Z,55.48
2023-10-20T10:27:31.592Z,55.71
2023-10-20T10:30:06.672Z,55.40
2023-10-20T10:32:35.612Z,54.75
2023-10-20T10:35:05.222Z,54.09
2023-10-20T10:37:36.114Z,53.83
2023-10-20T10:40:23.672Z,55.20
2023-10-20T10:42:52.082Z,55.58
2023-10-20T10:45:25.515Z,56.24
2023-10-20T10:48:13.125Z,54.42
2023-10-20T10:50:45.076Z,53.93
2023-10-20T10:53:12.977Z,53.75
2023-10-20T10:55:40.218Z,53.08
2023-10-20T10:58:07.713Z,53.96
2023-10-20T11:00:35.017Z,54.46
2023-10-20T11:03:03.580Z,53.82
2023-10-20T11:05:34.425Z,54.29
2023-10-20T11:08:08.697Z,54.50
2023-10-20T11:10:38.897Z,54.35
2023-10-20T11:13:07.968Z,54.35
2023-10-20T11:15:36.328Z,54.63
2023-10-20T11:18:06.423Z,54.59
2023-10-20T11:20:39.475Z,52.30
2023-10-20T11:23:08.446Z,51.15
2023-10-20T11:28:04.241Z,50.19
2023-10-20T11:30:39.791Z,50.34
2023-10-20T11:33:06.911Z,50.17
2023-10-20T11:35:33.837Z,49.77
2023-10-20T11:38:02.213Z,50.05
2023-10-20T11:40:29.118Z,50.11
2023-10-20T11:42:56.962Z,49.62
2023-10-20T11:45:23.755Z,49.71
2023-10-20T11:47:50.635Z,49.42
2023-10-20T11:50:17.768Z,49.23
2023-10-20T11:52:44.399Z,48.84
2023-10-20T11:55:12.177Z,49.16
2023-10-20T11:57:39.791Z,48.88
2023-10-20T12:00:11.040Z,48.66
2023-10-20T12:02:39.607Z,48.32
2023-10-20T12:05:07.971Z,47.51
2023-10-20T12:07:34.886Z,48.18
2023-10-20T12:10:01.602Z,47.15
2023-10-20T12:12:28.381Z,47.89
2023-10-20T12:14:55.034Z,47.91
2023-10-20T12:17:22.009Z,48.14
2023-10-20T12:19:50.319Z,47.22
2023-10-20T12:22:18.712Z,46.61
2023-10-20T12:24:45.314Z,47.01
2023-10-20T12:27:14.389Z,46.65
2023-10-20T12:29:41.608Z,46.32
2023-10-20T12:32:13.626Z,46.72
2023-10-20T12:34:40.959Z,46.56
2023-10-20T12:37:08.626Z,45.94
2023-10-20T12:39:35.459Z,45.87
2023-10-20T12:42:06.311Z,45.71
2023-10-20T12:44:35.396Z,46.83
2023-10-20T12:47:02.674Z,46.35
2023-10-20T12:49:29.487Z,45.72
2023-10-20T12:51:56.677Z,46.30
2023-10-20T12:54:24.705Z,46.11
2023-10-20T12:56:51.537Z,45.13
2023-10-20T12:59:18.523Z,45.99
2023-10-20T13:01:45.342Z,47.09
2023-10-20T13:04:12.576Z,45.91
2023-10-20T13:06:53.779Z,46.06
2023-10-20T13:09:25.438Z,47.59
2023-10-20T13:11:52.437Z,45.89
2023-10-20T13:14:19.132Z,45.70
2023-10-20T13:16:45.843Z,45.72
2023-10-20T13:19:14.970Z,45.45
2023-10-20T13:21:42.380Z,45.59
2023-10-20T13:24:09.544Z,45.22
2023-10-20T13:26:36.223Z,45.10
2023-10-20T13:29:02.853Z,45.13
2023-10-20T13:31:30.045Z,44.38
2023-10-20T13:33:56.592Z,44.25
2023-10-20T13:36:23.235Z,44.63
2023-10-20T13:38:49.980Z,44.77
2023-10-20T13:41:16.701Z,46.08
2023-10-20T13:43:43.358Z,45.38
2023-10-20T13:46:11.036Z,45.49
2023-10-20T13:48:38.489Z,45.65
2023-10-20T13:51:05.337Z,45.78
2023-10-20T13:53:32.267Z,46.13
2023-10-20T13:55:58.901Z,46.29
2023-10-20T14:16:45.024Z,46.46
2023-10-20T14:19:12.356Z,46.82
2023-10-20T14:21:39.908Z,47.80
2023-10-20T14:24:08.069Z,48.26
2023-10-20T14:26:34.773Z,48.43
2023-10-20T14:29:01.382Z,49.42
2023-10-20T14:31:31.712Z,49.70
2023-10-20T14:34:00.361Z,50.57
2023-10-20T14:36:27.371Z,50.49
2023-10-20T14:38:54.079Z,51.01
2023-10-20T14:41:20.745Z,51.63
2023-10-20T14:43:47.381Z,51.73
2023-10-20T14:46:14.447Z,52.34
2023-10-20T14:48:41.184Z,52.85
2023-10-20T14:51:09.217Z,53.21
2023-10-20T14:53:36.159Z,52.86
2023-10-20T14:56:04.256Z,53.29
2023-10-20T14:58:32.002Z,53.57
2023-10-20T15:00:58.837Z,54.15
2023-10-20T15:03:25.762Z,54.95
2023-10-20T15:05:52.657Z,55.13
2023-10-20T15:08:20.932Z,55.51
2023-10-20T15:10:48.791Z,55.28
2023-10-20T15:13:16.238Z,56.31
2023-10-20T15:15:42.995Z,56.35
2023-10-20T15:18:09.818Z,56.79
2023-10-20T15:20:40.406Z,56.85
2023-10-20T15:23:17.203Z,57.58
2023-10-20T15:25:44.934Z,57.79
2023-10-20T15:28:11.588Z,58.48
2023-10-20T15:30:38.286Z,58.90
2023-10-20T15:33:05.288Z,59.54
2023-10-20T15:35:32.775Z,60.13
2023-10-20T15:38:03.224Z,60.59
2023-10-20T15:40:30.413Z,61.28
2023-10-20T15:42:57.083Z,61.86
2023-10-20T15:45:23.772Z,61.93
2023-10-20T15:47:51.098Z,62.22
2023-10-20T15:50:18.357Z,62.44
2023-10-20T15:52:45.015Z,62.40
2023-10-20T15:55:11.657Z,61.96
2023-10-20T15:57:38.301Z,62.57
2023-10-20T16:00:05.724Z,62.52
2023-10-20T16:02:32.456Z,63.26
2023-10-20T16:04:59.271Z,63.53
2023-10-20T16:07:26.578Z,63.11
2023-10-20T16:09:53.155Z,63.14
2023-10-20T16:12:19.860Z,63.58
2023-10-20T16:14:46.493Z,63.47
2023-10-20T16:17:13.138Z,63.53
2023-10-20T16:19:40.511Z,63.64
2023-10-20T16:22:07.382Z,63.52
2023-10-20T16:24:34.097Z,63.93
2023-10-20T16:27:00.867Z,64.30
2023-10-20T16:29:27.612Z,64.47
2023-10-20T16:31:54.297Z,64.88
2023-10-20T16:34:21.808Z,64.22
2023-10-20T16:36:48.543Z,64.39
2023-10-20T16:39:19.041Z,64.61
2023-10-20T16:41:46.395Z,64.91
2023-10-20T16:44:13.741Z,65.31
2023-10-20T16:46:41.557Z,65.96
2023-10-20T16:49:08.601Z,65.59
2023-10-20T16:51:35.249Z,65.50
2023-10-20T16:54:02.330Z,64.50
2023-10-20T16:56:29.030Z,64.14
2023-10-20T16:58:55.756Z,65.15
2023-10-20T17:01:23.125Z,65.43
2023-10-20T17:03:50.035Z,65.02
2023-10-20T17:06:16.768Z,64.83
2023-10-20T17:08:43.582Z,65.52
2023-10-20T17:11:12.437Z,66.51
2023-10-20T17:13:39.056Z,67.09
2023-10-20T17:16:07.197Z,67.52
2023-10-20T17:18:34.188Z,67.79
2023-10-20T17:21:05.469Z,68.51
2023-10-20T17:23:32.817Z,69.16
2023-10-20T17:26:00.274Z,69.10
2023-10-20T17:28:27.204Z,69.63
2023-10-20T17:30:58.897Z,70.26
2023-10-20T17:33:28.741Z,70.42
2023-10-20T17:36:02.278Z,70.21
2023-10-20T17:38:29.099Z,69.99
2023-10-20T17:41:00.498Z,69.80
2023-10-20T17:43:27.151Z,69.99
2023-10-20T17:45:53.863Z,69.20
2023-10-20T17:48:20.642Z,69.26
2023-10-20T17:50:47.496Z,69.43
2023-10-20T17:53:14.199Z,69.35
2023-10-20T17:55:42.493Z,69.18
2023-10-20T17:58:09.991Z,69.66
2023-10-20T18:00:36.672Z,70.17
2023-10-20T18:03:04.010Z,70.16
2023-10-20T18:05:30.968Z,70.40
2023-10-20T18:07:58.606Z,70.84
2023-10-20T18:10:25.198Z,71.18
2023-10-20T18:12:51.824Z,71.17
2023-10-20T18:15:18.648Z,71.81
2023-10-20T18:17:45.268Z,70.60
2023-10-20T18:20:12.015Z,70.09
2023-10-20T18:22:38.613Z,70.25
2023-10-20T18:25:05.679Z,70.53
2023-10-20T18:27:32.381Z,69.65
2023-10-20T18:29:59.570Z,70.25
2023-10-20T18:32:26.240Z,71.32
2023-10-20T18:34:52.866Z,71.25
2023-10-20T18:37:19.692Z,71.44
2023-10-20T18:39:46.423Z,71.36
2023-10-20T18:42:13.222Z,71.25
2023-10-20T18:44:40.684Z,72.25
2023-10-20T18:47:07.424Z,70.87
2023-10-20T18:49:34.297Z,72.13
2023-10-20T18:52:01.082Z,72.69
2023-10-20T18:54:27.705Z,72.98
2023-10-20T18:56:54.632Z,73.51
2023-10-20T18:59:21.664Z,74.11
2023-10-20T19:01:48.320Z,74.23
2023-10-20T19:04:14.984Z,74.21
2023-10-20T19:06:41.876Z,74.23
2023-10-20T19:09:09.595Z,74.23
2023-10-20T19:11:37.550Z,74.21
2023-10-20T19:14:04.502Z,73.91
2023-10-20T19:16:34.503Z,73.89
2023-10-20T19:19:01.678Z,74.53
2023-10-20T19:21:28.655Z,77.75
2023-10-20T19:23:55.452Z,74.99
2023-10-20T19:26:22.277Z,78.10
2023-10-20T19:28:49.035Z,75.71
2023-10-20T19:31:15.743Z,76.09
2023-10-20T19:33:42.598Z,76.56
2023-10-20T19:36:10.616Z,75.87
2023-10-20T19:38:38.208Z,76.32
2023-10-20T19:41:05.155Z,75.33
2023-10-20T19:43:31.734Z,74.43
2023-10-20T19:45:59.136Z,74.53
2023-10-20T19:48:25.881Z,74.76
2023-10-20T19:50:52.765Z,74.73
2023-10-20T19:53:19.532Z,75.15
2023-10-20T19:55:46.929Z,76.19
2023-10-20T19:58:13.562Z,76.71
2023-10-20T20:00:41.037Z,77.66
2023-10-20T20:03:08.336Z,76.36
2023-10-20T20:05:35.372Z,76.67
2023-10-20T20:08:02.081Z,77.65
2023-10-20T20:10:28.876Z,78.10
2023-10-20T20:12:55.535Z,79.06
2023-10-20T20:15:24.768Z,79.40
2023-10-20T20:17:52.038Z,80.23
2023-10-20T20:20:18.905Z,79.44
2023-10-20T20:22:45.824Z,80.23
2023-10-20T20:25:12.668Z,80.09
2023-10-20T20:27:39.588Z,79.86
2023-10-20T20:30:06.984Z,80.30
2023-10-20T20:32:33.795Z,80.68
2023-10-20T20:35:00.679Z,81.72
2023-10-20T20:37:27.352Z,81.72
2023-10-20T20:39:54.202Z,82.06
2023-10-20T20:42:20.963Z,82.20
2023-10-20T20:44:47.727Z,82.67
2023-10-20T20:47:14.479Z,82.59
2023-10-20T20:49:41.226Z,82.06
2023-10-20T20:52:07.950Z,82.01
2023-10-20T20:54:35.432Z,82.60
2023-10-20T20:57:02.150Z,83.48
2023-10-20T20:59:28.856Z,83.52
2023-10-20T21:01:55.571Z,83.64
2023-10-20T21:04:22.312Z,84.40
2023-10-20T21:06:49.095Z,84.64
2023-10-20T21:09:15.748Z,84.73
2023-10-20T21:11:42.444Z,84.09
2023-10-20T21:14:09.700Z,84.31
2023-10-20T21:16:36.235Z,84.64
2023-10-20T21:19:04.861Z,84.85
2023-10-20T21:21:31.529Z,85.45
2023-10-20T21:23:59.026Z,85.89
2023-10-20T21:26:25.717Z,85.89
2023-10-20T21:28:53.007Z,85.99
2023-10-20T21:31:19.976Z,85.94
2023-10-20T21:33:47.397Z,86.17
2023-10-20T21:36:16.217Z,86.44
2023-10-20T21:38:43.133Z,86.59
2023-10-20T21:41:10.131Z,87.42
2023-10-20T21:43:36.780Z,87.55
2023-10-20T21:46:04.949Z,88.27
2023-10-20T21:48:31.878Z,88.10
2023-10-20T21:51:03.818Z,88.63
2023-10-20T21:53:33.290Z,88.61
2023-10-20T21:56:06.866Z,89.08
2023-10-20T21:58:33.931Z,88.70
2023-10-20T22:01:00.730Z,89.03
2023-10-20T22:03:28.266Z,90.36
2023-10-20T22:05:55.238Z,90.06
2023-10-20T22:08:22.354Z,89.97
2023-10-20T22:10:49.157Z,90.04
2023-10-20T22:13:15.999Z,90.24
2023-10-20T22:15:42.584Z,91.08
2023-10-20T22:18:11.912Z,91.48
2023-10-20T22:20:39.734Z,91.90
2023-10-20T22:23:07.963Z,92.95
2023-10-20T22:25:35.633Z,93.34
2023-10-20T22:28:02.241Z,94.23
2023-10-20T22:30:29.017Z,94.83
2023-10-20T22:32:55.762Z,95.03
2023-10-20T22:35:24.276Z,94.73
2023-10-20T22:37:51.633Z,95.31
2023-10-20T22:40:18.451Z,94.75
2023-10-20T22:42:45.226Z,95.55
2023-10-20T22:45:12.315Z,95.37
2023-10-20T22:47:39.028Z,95.19
2023-10-20T22:50:08.631Z,95.38
2023-10-20T22:52:35.646Z,96.06
2023-10-20T22:55:03.721Z,95.13
2023-10-20T22:57:30.852Z,94.61
2023-10-20T22:59:58.650Z,94.99
2023-10-20T23:02:25.774Z,94.46
2023-10-20T23:04:52.550Z,94.25
2023-10-20T23:07:19.155Z,94.31
2023-10-20T23:09:45.839Z,94.84
2023-10-20T23:12:13.005Z,94.60
2023-10-20T23:14:39.635Z,94.54
2023-10-20T23:17:06.239Z,94.29
2023-10-20T23:19:32.958Z,93.57
2023-10-20T23:21:59.641Z,93.74
2023-10-20T23:24:26.283Z,93.66
2023-10-20T23:26:52.955Z,93.92
2023-10-20T23:29:20.436Z,94.09
2023-10-20T23:31:47.067Z,93.69
2023-10-20T23:34:13.799Z,94.30
2023-10-20T23:36:41.848Z,94.52
2023-10-20T23:39:08.726Z,94.05
2023-10-20T23:41:35.445Z,94.03
2023-10-20T23:44:02.079Z,93.33
2023-10-20T23:46:28.882Z,93.17
2023-10-20T23:48:55.546Z,92.61
2023-10-20T23:51:22.241Z,92.28
2023-10-20T23:53:49.212Z,92.95
2023-10-20T23:56:16.028Z,92.33
2023-10-20T23:58:42.640Z,92.90
